Time;durP1;ratioP1;P1;durP2;ratioP2;P2;SDS_P1;SDS_P2;PMS_P1;PMS_P2;Temp;Humidity;BMP_temperature;BMP_pressure;BME280_temperature;BME280_humidity;BME280_pressure;Samples;Min_cycle;Max_cycle;Signal;HPM_P1;HPM_P2
2022/07/04 00:01:34;;;;;;;4.20;2.03;;;20.40;99.90;;;;;;5055749;22;20484;-89
2022/07/04 00:04:01;;;;;;;2.43;1.77;;;20.40;99.90;;;;;;5039563;28;20479;-92
2022/07/04 00:06:29;;;;;;;4.93;2.10;;;20.50;99.90;;;;;;5039687;28;20460;-92
2022/07/04 00:08:56;;;;;;;1.90;1.77;;;20.50;99.90;;;;;;5039243;28;20468;-92
2022/07/04 00:11:22;;;;;;;4.93;2.23;;;20.50;99.90;;;;;;5037934;28;20889;-91
2022/07/04 00:13:49;;;;;;;2.87;2.00;;;20.50;99.90;;;;;;5041094;28;20486;-92
2022/07/04 00:16:16;;;;;;;5.10;2.17;;;20.50;99.90;;;;;;5041162;28;20545;-92
2022/07/04 00:18:44;;;;;;;1.80;1.70;;;20.40;99.90;;;;;;5047791;28;20467;-91
2022/07/04 00:21:11;;;;;;;1.90;1.80;;;20.50;99.90;;;;;;5048846;28;20844;-92
2022/07/04 00:23:37;;;;;;;3.67;2.37;;;20.50;99.90;;;;;;5046953;28;20460;-92
2022/07/04 00:26:04;;;;;;;3.97;2.10;;;20.50;99.90;;;;;;5058113;28;20831;-92
2022/07/04 00:28:31;;;;;;;2.37;1.80;;;20.40;99.90;;;;;;5057198;28;20467;-92
2022/07/04 00:30:57;;;;;;;2.50;1.73;;;20.40;99.90;;;;;;5057433;28;20813;-92
2022/07/04 00:33:24;;;;;;;2.00;1.77;;;20.40;99.90;;;;;;5057695;28;20491;-92
2022/07/04 00:35:52;;;;;;;1.93;1.80;;;20.30;99.90;;;;;;5057923;28;20834;-91
2022/07/04 00:38:19;;;;;;;2.43;2.10;;;20.30;99.90;;;;;;5056993;28;20474;-93
2022/07/04 00:40:46;;;;;;;3.80;2.17;;;20.30;99.90;;;;;;5056978;28;20459;-91
2022/07/04 00:43:12;;;;;;;4.20;1.70;;;20.30;99.90;;;;;;5057378;28;20546;-91
2022/07/04 00:45:39;;;;;;;2.23;2.03;;;20.30;99.90;;;;;;5057494;28;20462;-92
2022/07/04 00:48:06;;;;;;;2.40;2.10;;;20.20;99.90;;;;;;5056881;28;20463;-91
2022/07/04 00:50:33;;;;;;;2.37;2.13;;;20.20;99.90;;;;;;5056848;28;20494;-92
2022/07/04 00:53:02;;;;;;;2.47;2.10;;;20.30;99.90;;;;;;5057007;28;20489;-92
2022/07/04 00:55:29;;;;;;;3.00;2.07;;;20.20;99.90;;;;;;5057397;28;20517;-92
2022/07/04 00:57:55;;;;;;;3.33;2.20;;;20.20;99.90;;;;;;5056948;28;20849;-92
2022/07/04 01:00:22;;;;;;;2.60;2.27;;;20.20;99.90;;;;;;5056005;28;20456;-92
2022/07/04 01:02:49;;;;;;;2.80;1.60;;;20.20;99.90;;;;;;5056391;28;20892;-92
2022/07/04 01:05:16;;;;;;;2.67;2.20;;;20.20;99.90;;;;;;5056247;28;20467;-92
2022/07/04 01:07:43;;;;;;;2.60;2.10;;;20.20;99.90;;;;;;5056520;28;20475;-91
2022/07/04 01:10:12;;;;;;;2.33;2.03;;;20.20;99.90;;;;;;5055421;28;20479;-92
2022/07/04 01:12:39;;;;;;;2.97;2.13;;;20.10;99.90;;;;;;5056307;28;20479;-92
2022/07/04 01:15:07;;;;;;;2.27;2.07;;;20.10;99.90;;;;;;5056117;28;20459;-92
2022/07/04 01:17:34;;;;;;;4.03;2.03;;;20.10;99.90;;;;;;5056427;28;20831;-92
2022/07/04 01:20:01;;;;;;;2.93;2.10;;;20.10;99.90;;;;;;5056426;28;20459;-92
2022/07/04 01:22:29;;;;;;;6.03;1.90;;;20.00;99.90;;;;;;5058383;28;20846;-92
2022/07/04 01:24:56;;;;;;;2.30;2.03;;;20.10;99.90;;;;;;5060522;28;20467;-92
2022/07/04 01:27:23;;;;;;;3.40;2.20;;;20.00;99.90;;;;;;5061197;28;20470;-92
2022/07/04 01:29:49;;;;;;;3.17;1.90;;;20.00;99.90;;;;;;5059423;28;20509;-91
2022/07/04 01:32:17;;;;;;;2.50;2.30;;;20.00;99.90;;;;;;5060580;28;20487;-92
2022/07/04 01:34:43;;;;;;;3.33;2.00;;;20.00;99.90;;;;;;5059490;28;20444;-92
2022/07/04 01:37:10;;;;;;;2.80;2.10;;;19.90;99.90;;;;;;5058554;28;20455;-92
2022/07/04 01:39:39;;;;;;;3.27;1.97;;;19.90;99.90;;;;;;5058136;28;20506;-91
2022/07/04 01:42:06;;;;;;;2.30;2.10;;;19.90;99.90;;;;;;5056510;28;20480;-92
2022/07/04 01:44:41;;;;;;;3.33;2.00;;;19.90;99.90;;;;;;5055220;28;20467;-92
2022/07/04 01:47:08;;;;;;;2.03;1.83;;;19.80;99.90;;;;;;5055334;28;20521;-92
2022/07/04 01:49:34;;;;;;;3.50;2.13;;;19.80;99.90;;;;;;5055514;28;20467;-92
2022/07/04 01:52:01;;;;;;;2.80;2.53;;;19.80;99.90;;;;;;5055187;28;20487;-92
2022/07/04 01:54:28;;;;;;;3.20;1.87;;;19.80;99.90;;;;;;5055015;28;20459;-92
2022/07/04 01:56:56;;;;;;;5.77;2.07;;;19.80;99.90;;;;;;5054806;28;20465;-92
2022/07/04 02:01:29;;;;;;;2.03;1.93;;;19.70;99.90;;;;;;5053943;28;20467;-91
2022/07/04 02:02:09;;;;;;;4.03;2.27;;;19.70;99.90;;;;;;5053648;28;20556;-91
2022/07/04 02:04:36;;;;;;;2.20;2.00;;;19.70;99.90;;;;;;5054786;28;20463;-92
2022/07/04 02:07:02;;;;;;;3.50;2.23;;;19.70;99.90;;;;;;5054846;28;20814;-92
2022/07/04 02:09:30;;;;;;;2.97;2.10;;;19.70;99.90;;;;;;5053578;28;20464;-92
2022/07/04 02:14:43;;;;;;;2.97;2.10;;;19.60;99.90;;;;;;5054038;28;20467;-92
2022/07/04 02:17:10;;;;;;;2.40;2.17;;;19.60;99.90;;;;;;5052842;28;20456;-92
2022/07/04 02:19:37;;;;;;;2.90;1.73;;;19.60;99.90;;;;;;5052462;28;20456;-92
2022/07/04 02:22:05;;;;;;;2.90;2.40;;;19.60;99.90;;;;;;5052690;28;20487;-92
2022/07/04 02:24:31;;;;;;;2.10;1.90;;;19.60;99.90;;;;;;5053187;28;20467;-91
2022/07/04 02:27:00;;;;;;;7.97;2.30;;;19.50;99.90;;;;;;5053016;28;20476;-92
2022/07/04 02:29:27;;;;;;;2.40;2.10;;;19.50;99.90;;;;;;5052904;28;20460;-92
2022/07/04 02:31:54;;;;;;;4.80;2.37;;;19.50;99.90;;;;;;5052818;28;20495;-92
2022/07/04 02:34:20;;;;;;;3.37;1.90;;;19.50;99.90;;;;;;5053093;28;20467;-91
2022/07/04 02:36:47;;;;;;;2.70;2.13;;;19.40;99.90;;;;;;5053482;28;20467;-92
2022/07/04 02:39:14;;;;;;;2.97;2.10;;;19.40;99.90;;;;;;5052438;28;20936;-92
2022/07/04 02:41:41;;;;;;;4.13;1.80;;;19.40;99.90;;;;;;5052821;28;20480;-91
2022/07/04 02:44:09;;;;;;;2.80;2.10;;;19.40;99.90;;;;;;5053029;28;20451;-92
2022/07/04 02:46:39;;;;;;;2.97;2.37;;;19.40;99.90;;;;;;5052961;28;20558;-92
2022/07/04 02:49:06;;;;;;;5.63;2.20;;;19.30;99.90;;;;;;5052588;28;20553;-91
2022/07/04 02:51:33;;;;;;;2.37;2.17;;;19.20;99.90;;;;;;5052765;28;20490;-91
2022/07/04 02:54:00;;;;;;;4.77;2.33;;;19.20;99.90;;;;;;5052881;28;20466;-91
2022/07/04 02:56:26;;;;;;;2.77;2.37;;;19.20;99.90;;;;;;5052844;28;20464;-92
2022/07/04 02:58:53;;;;;;;2.40;2.00;;;19.10;99.90;;;;;;5052518;28;20475;-92
2022/07/04 03:01:21;;;;;;;4.10;2.30;;;19.10;99.90;;;;;;5052283;28;20465;-92
2022/07/04 03:03:48;;;;;;;2.00;1.90;;;19.10;99.90;;;;;;5053069;28;20459;-92
2022/07/04 03:06:15;;;;;;;2.70;1.93;;;19.10;99.90;;;;;;5052790;28;20455;-92
2022/07/04 03:08:42;;;;;;;2.40;2.10;;;19.00;99.90;;;;;;5052624;28;20534;-92
2022/07/04 03:11:09;;;;;;;2.67;2.00;;;19.00;99.90;;;;;;5052101;28;20489;-92
2022/07/04 03:13:37;;;;;;;4.43;2.40;;;19.00;99.90;;;;;;5052863;28;20468;-91
2022/07/04 03:16:04;;;;;;;2.97;2.60;;;18.90;99.90;;;;;;5052703;28;20463;-92
2022/07/04 03:18:32;;;;;;;3.37;2.30;;;18.90;99.90;;;;;;5052496;28;20466;-92
2022/07/04 03:20:59;;;;;;;3.23;2.13;;;18.90;99.90;;;;;;5052394;28;20460;-93
2022/07/04 03:23:26;;;;;;;4.27;2.50;;;18.90;99.90;;;;;;5052069;28;20502;-92
2022/07/04 03:25:53;;;;;;;4.37;2.00;;;18.90;99.90;;;;;;5039047;28;20463;-92
2022/07/04 03:28:19;;;;;;;4.40;2.27;;;18.80;99.90;;;;;;5032067;28;20471;-92
2022/07/04 03:30:46;;;;;;;3.43;2.30;;;18.80;99.90;;;;;;5022099;28;20521;-92
2022/07/04 03:33:13;;;;;;;2.50;1.83;;;18.80;99.90;;;;;;5016428;28;20496;-92
2022/07/04 03:35:41;;;;;;;2.63;2.10;;;18.80;99.90;;;;;;5027170;28;20482;-92
2022/07/04 03:38:08;;;;;;;3.00;2.70;;;18.80;99.90;;;;;;5036333;28;20972;-91
2022/07/04 03:40:38;;;;;;;3.50;2.30;;;18.80;99.90;;;;;;5036403;28;20810;-93
2022/07/04 03:43:06;;;;;;;3.30;1.90;;;18.70;99.90;;;;;;5036444;28;20487;-92
2022/07/04 03:45:40;;;;;;;3.00;2.20;;;18.80;99.90;;;;;;5036628;28;20555;-92
2022/07/04 03:48:07;;;;;;;2.63;2.10;;;18.80;99.90;;;;;;5036455;28;20567;-91
2022/07/04 03:50:34;;;;;;;2.57;2.10;;;18.70;99.90;;;;;;5036282;28;20479;-92
2022/07/04 03:53:02;;;;;;;2.63;2.40;;;18.70;99.90;;;;;;5037134;28;20999;-93
2022/07/04 03:55:29;;;;;;;2.40;2.20;;;18.60;99.90;;;;;;5036079;28;20465;-91
2022/07/04 03:58:11;;;;;;;3.60;2.07;;;18.70;99.90;;;;;;5030013;28;20203;-92
2022/07/04 04:00:38;;;;;;;3.30;2.10;;;18.60;99.90;;;;;;5018602;28;20457;-91
2022/07/04 04:05:26;;;;;;;5.70;2.17;;;18.60;99.90;;;;;;5015229;28;20497;-91
2022/07/04 04:05:51;;;;;;;2.20;2.00;;;18.60;99.90;;;;;;5016180;28;20538;-91
2022/07/04 04:08:19;;;;;;;2.27;2.07;;;18.60;99.90;;;;;;5016146;28;20469;-92
2022/07/04 04:10:46;;;;;;;3.30;2.43;;;18.60;99.90;;;;;;5016582;28;20227;-91
2022/07/04 04:13:12;;;;;;;2.63;2.20;;;18.60;99.90;;;;;;5016375;28;21257;-92
2022/07/04 04:15:39;;;;;;;6.00;2.80;;;18.60;99.90;;;;;;5018254;28;20834;-91
2022/07/04 04:18:06;;;;;;;2.97;2.20;;;18.50;99.90;;;;;;5016730;28;20461;-92
2022/07/04 04:20:33;;;;;;;2.33;2.10;;;18.50;99.90;;;;;;5016629;28;20957;-91
2022/07/04 04:22:59;;;;;;;2.80;2.60;;;18.50;99.90;;;;;;5015858;28;21120;-91
2022/07/04 04:25:28;;;;;;;2.73;2.17;;;18.40;99.90;;;;;;5017967;28;20465;-91
2022/07/04 04:27:55;;;;;;;4.20;2.47;;;18.40;99.90;;;;;;5016726;28;20465;-91
2022/07/04 04:30:21;;;;;;;2.70;2.10;;;18.40;99.90;;;;;;5019305;28;20556;-93
2022/07/04 04:32:48;;;;;;;2.47;2.27;;;18.30;99.90;;;;;;5018032;28;20998;-93
2022/07/04 04:35:15;;;;;;;3.43;2.53;;;18.30;99.90;;;;;;5018567;28;20465;-93
2022/07/04 04:37:42;;;;;;;4.43;2.30;;;18.30;99.90;;;;;;5020986;28;20981;-92
2022/07/04 04:40:10;;;;;;;2.93;2.73;;;18.30;99.90;;;;;;5020755;28;20475;-94
2022/07/04 04:42:38;;;;;;;4.67;2.70;;;18.20;99.90;;;;;;5018407;28;20481;-93
2022/07/04 04:45:06;;;;;;;4.10;2.53;;;18.20;99.90;;;;;;5019872;28;20468;-93
2022/07/04 04:47:32;;;;;;;4.67;2.33;;;18.20;99.90;;;;;;5021988;28;20837;-93
2022/07/04 04:50:00;;;;;;;4.40;2.83;;;18.20;99.90;;;;;;5021619;28;20457;-93
2022/07/04 04:52:27;;;;;;;2.60;2.20;;;18.20;99.90;;;;;;5020399;28;20512;-93
2022/07/04 04:54:53;;;;;;;3.23;2.40;;;18.20;99.90;;;;;;5019533;28;20461;-94
2022/07/04 04:57:22;;;;;;;2.63;2.17;;;18.20;99.90;;;;;;5020850;28;20970;-93
2022/07/04 04:59:50;;;;;;;2.37;2.17;;;18.20;99.90;;;;;;5020529;28;20473;-94
2022/07/04 05:02:17;;;;;;;2.97;2.10;;;18.30;99.90;;;;;;5020708;28;20497;-93
2022/07/04 05:04:43;;;;;;;2.93;2.10;;;18.30;99.90;;;;;;5022057;28;20464;-93
2022/07/04 05:07:10;;;;;;;3.60;2.10;;;18.30;99.90;;;;;;5021148;28;20962;-93
2022/07/04 05:09:37;;;;;;;2.97;1.80;;;18.40;99.90;;;;;;5023964;28;20954;-94
2022/07/04 05:12:40;;;;;;;4.17;2.60;;;18.40;99.90;;;;;;5023934;28;20484;-93
2022/07/04 05:15:10;;;;;;;3.67;2.50;;;18.40;99.90;;;;;;5021950;28;20544;-93
2022/07/04 05:17:37;;;;;;;3.73;2.00;;;18.30;99.90;;;;;;5026808;28;20462;-94
2022/07/04 05:20:04;;;;;;;2.40;2.20;;;18.30;99.90;;;;;;5034405;28;20454;-94
2022/07/04 05:22:31;;;;;;;3.00;2.10;;;18.30;99.90;;;;;;5027635;28;20485;-93
2022/07/04 05:25:00;;;;;;;4.13;2.50;;;18.30;99.90;;;;;;5024377;28;20457;-93
2022/07/04 05:27:42;;;;;;;2.60;2.40;;;18.20;99.90;;;;;;5024998;28;20465;-94
2022/07/04 05:30:11;;;;;;;2.80;2.60;;;18.20;99.90;;;;;;5025165;28;20472;-93
2022/07/04 05:32:40;;;;;;;2.40;2.20;;;18.20;99.90;;;;;;5028218;28;20565;-94
2022/07/04 05:35:07;;;;;;;3.40;2.27;;;18.20;99.90;;;;;;5026019;28;20465;-93
2022/07/04 05:37:35;;;;;;;4.10;2.73;;;18.20;99.90;;;;;;5024608;28;20472;-93
2022/07/04 05:40:01;;;;;;;3.73;2.57;;;18.30;99.90;;;;;;5023982;28;20519;-94
2022/07/04 05:42:28;;;;;;;2.70;2.17;;;18.30;99.90;;;;;;5022872;28;20481;-93
2022/07/04 05:44:55;;;;;;;2.47;2.13;;;18.30;99.90;;;;;;5022410;28;20465;-94
2022/07/04 05:47:24;;;;;;;3.13;2.40;;;18.40;99.90;;;;;;5023772;28;20461;-93
2022/07/04 05:49:51;;;;;;;4.37;2.67;;;18.40;99.90;;;;;;5022613;28;20484;-93
2022/07/04 05:52:18;;;;;;;3.83;2.13;;;18.50;99.90;;;;;;5026006;28;20491;-94
2022/07/04 05:54:45;;;;;;;4.47;2.40;;;18.50;99.90;;;;;;5026673;28;20468;-93
2022/07/04 05:57:11;;;;;;;3.87;2.13;;;18.60;99.90;;;;;;5025753;28;20982;-93
2022/07/04 05:59:38;;;;;;;3.73;1.90;;;18.70;99.90;;;;;;5060753;28;20470;-94
2022/07/04 06:04:40;;;;;;;3.20;2.20;;;18.80;99.90;;;;;;5011008;28;20505;-90
2022/07/04 06:07:07;;;;;;;4.63;2.63;;;18.90;99.90;;;;;;5013848;28;20457;-90
2022/07/04 06:09:33;;;;;;;2.73;2.30;;;18.90;99.90;;;;;;5013252;28;20467;-89
2022/07/04 06:12:00;;;;;;;2.40;2.20;;;19.00;99.90;;;;;;5014196;28;20493;-89
2022/07/04 06:14:27;;;;;;;3.00;2.77;;;19.10;99.90;;;;;;4995034;28;20524;-89
2022/07/04 06:16:53;;;;;;;4.23;2.83;;;19.10;99.90;;;;;;4994313;28;20466;-90
2022/07/04 06:19:20;;;;;;;2.93;2.40;;;19.10;99.90;;;;;;4994158;28;20466;-89
2022/07/04 06:21:48;;;;;;;3.00;2.03;;;19.10;99.90;;;;;;4993973;28;20967;-91
2022/07/04 06:24:15;;;;;;;2.93;2.37;;;19.20;99.90;;;;;;4993743;28;20489;-90
2022/07/04 06:26:42;;;;;;;1.90;1.80;;;19.20;99.90;;;;;;4993520;28;20462;-89
2022/07/04 06:29:08;;;;;;;3.70;1.80;;;19.20;99.90;;;;;;4992941;28;20476;-89
2022/07/04 06:31:35;;;;;;;4.23;2.10;;;19.20;99.90;;;;;;4993759;28;20485;-88
2022/07/04 06:36:47;;;;;;;4.00;2.00;;;19.40;99.90;;;;;;4993871;28;20450;-87
2022/07/04 06:39:14;;;;;;;3.83;1.93;;;19.40;99.90;;;;;;4992938;28;20469;-91
2022/07/04 06:41:41;;;;;;;3.30;2.37;;;19.50;99.90;;;;;;4993070;28;20454;-90
2022/07/04 06:44:08;;;;;;;3.03;1.90;;;19.60;99.90;;;;;;4993502;28;20482;-90
2022/07/04 06:46:34;;;;;;;3.10;2.03;;;19.70;99.90;;;;;;4993195;28;20972;-90
2022/07/04 06:49:01;;;;;;;3.20;2.30;;;19.70;99.90;;;;;;4993211;28;20473;-90
2022/07/04 06:51:28;;;;;;;3.83;2.03;;;19.80;99.90;;;;;;4993222;28;20553;-90
2022/07/04 06:53:56;;;;;;;3.07;2.27;;;19.90;99.90;;;;;;4993078;28;20486;-90
2022/07/04 06:56:22;;;;;;;2.83;2.47;;;19.90;99.90;;;;;;4993249;28;20466;-90
2022/07/04 06:58:49;;;;;;;4.23;2.57;;;20.00;99.90;;;;;;4994833;28;20458;-89
2022/07/04 07:01:16;;;;;;;2.47;2.20;;;20.10;99.90;;;;;;4995603;28;20542;-90
2022/07/04 07:03:43;;;;;;;2.60;2.07;;;20.10;99.90;;;;;;4995286;28;20494;-90
2022/07/04 07:06:11;;;;;;;4.80;2.20;;;20.10;99.90;;;;;;4995636;28;20473;-90
2022/07/04 07:08:37;;;;;;;4.40;2.27;;;20.20;99.90;;;;;;4994430;28;20462;-89
2022/07/04 07:11:13;;;;;;;2.77;2.40;;;20.20;99.90;;;;;;5004646;28;20463;-91
2022/07/04 07:13:41;;;;;;;3.70;2.40;;;20.30;99.90;;;;;;5006666;28;20536;-89
2022/07/04 07:22:03;;;;;;;3.00;2.40;;;20.60;99.90;;;;;;5035041;22;20583;-73
2022/07/04 07:24:31;;;;;;;5.57;2.53;;;20.70;99.90;;;;;;5029924;28;20480;-74
2022/07/04 07:26:59;;;;;;;2.57;2.10;;;20.70;99.90;;;;;;5029472;28;20456;-74
2022/07/04 07:29:26;;;;;;;3.00;2.57;;;20.80;99.90;;;;;;5029498;28;20535;-74
2022/07/04 07:31:53;;;;;;;2.40;2.20;;;20.80;99.90;;;;;;5029917;28;20484;-75
2022/07/04 07:34:20;;;;;;;2.97;2.47;;;20.80;99.90;;;;;;5029342;28;20484;-75
2022/07/04 07:36:50;;;;;;;3.70;2.40;;;20.90;99.90;;;;;;5029700;28;20468;-75
2022/07/04 07:39:16;;;;;;;2.57;2.10;;;20.90;99.90;;;;;;5028488;28;20456;-74
2022/07/04 07:41:43;;;;;;;4.10;2.23;;;21.00;99.90;;;;;;5030070;28;20460;-74
2022/07/04 07:44:11;;;;;;;2.70;2.50;;;21.00;99.90;;;;;;5029817;28;20473;-75
2022/07/04 07:46:38;;;;;;;4.80;2.40;;;21.10;99.90;;;;;;5029151;28;20452;-75
2022/07/04 07:49:05;;;;;;;2.60;2.17;;;21.10;99.90;;;;;;5029678;28;20467;-74
2022/07/04 07:51:32;;;;;;;5.67;2.60;;;21.10;99.90;;;;;;5029125;28;20464;-75
2022/07/04 07:53:59;;;;;;;4.07;2.60;;;21.20;99.90;;;;;;5029676;28;20487;-74
2022/07/04 07:56:26;;;;;;;3.00;2.23;;;21.20;99.90;;;;;;5029401;28;20464;-75
2022/07/04 07:58:53;;;;;;;3.63;2.17;;;21.20;99.90;;;;;;5029761;28;20460;-74
2022/07/04 08:01:21;;;;;;;3.40;2.40;;;21.20;99.90;;;;;;5028795;28;20464;-73
2022/07/04 08:06:33;;;;;;;3.70;2.37;;;21.20;99.90;;;;;;5029578;28;20435;-75
2022/07/04 08:09:00;;;;;;;2.60;2.33;;;21.20;99.90;;;;;;5046059;28;20463;-75
2022/07/04 08:11:26;;;;;;;3.53;2.40;;;21.30;99.90;;;;;;5048781;28;20463;-76
2022/07/04 08:13:54;;;;;;;2.90;2.70;;;21.30;99.90;;;;;;5048278;28;21084;-76
2022/07/04 08:16:22;;;;;;;2.83;2.53;;;21.30;99.90;;;;;;5048222;28;20455;-75
2022/07/04 08:18:48;;;;;;;3.43;2.70;;;21.30;99.90;;;;;;5050733;28;20455;-75
2022/07/04 08:21:15;;;;;;;2.90;2.60;;;21.20;99.90;;;;;;5052375;28;20474;-75
2022/07/04 08:23:42;;;;;;;2.90;2.50;;;21.20;99.90;;;;;;5042588;28;20456;-75
2022/07/04 08:26:09;;;;;;;5.60;2.50;;;21.20;99.90;;;;;;5032435;28;20978;-76
2022/07/04 08:28:36;;;;;;;2.70;2.50;;;21.20;99.90;;;;;;5032840;28;20530;-75
2022/07/04 08:31:04;;;;;;;4.10;2.43;;;21.30;99.90;;;;;;5031606;28;20467;-76
2022/07/04 08:33:32;;;;;;;3.33;2.30;;;21.20;99.90;;;;;;5032567;28;20824;-76
2022/07/04 08:35:58;;;;;;;3.80;2.40;;;21.10;99.90;;;;;;5031555;28;20985;-76
2022/07/04 08:38:25;;;;;;;2.40;2.20;;;21.10;99.90;;;;;;5032169;28;20460;-77
2022/07/04 08:40:57;;;;;;;4.23;2.33;;;21.10;99.90;;;;;;5031572;28;20463;-76
2022/07/04 08:43:25;;;;;;;3.40;2.00;;;21.10;99.90;;;;;;5032089;28;20502;-76
2022/07/04 08:45:54;;;;;;;3.33;2.70;;;21.20;99.90;;;;;;5031582;28;20488;-76
2022/07/04 08:48:24;;;;;;;4.43;2.50;;;21.30;99.90;;;;;;5031992;28;20460;-76
2022/07/04 08:50:57;;;;;;;3.50;2.07;;;21.30;99.90;;;;;;5031652;28;20948;-76
2022/07/04 08:53:28;;;;;;;3.73;2.60;;;21.30;99.90;;;;;;5031138;28;20492;-76
2022/07/04 08:58:41;;;;;;;2.47;2.27;;;21.40;99.90;;;;;;5032296;28;20443;-78
2022/07/04 09:01:14;;;;;;;3.00;2.53;;;21.40;99.90;;;;;;5031734;28;20464;-76
2022/07/04 09:03:42;;;;;;;2.30;2.10;;;21.50;99.90;;;;;;5032533;28;20456;-76
2022/07/04 09:06:11;;;;;;;3.43;2.33;;;21.50;99.90;;;;;;5032378;28;20830;-77
2022/07/04 09:08:38;;;;;;;3.70;2.60;;;21.50;99.90;;;;;;5032685;28;20467;-77
2022/07/04 09:11:06;;;;;;;5.20;2.60;;;21.50;99.90;;;;;;5031770;28;20836;-76
2022/07/04 09:13:33;;;;;;;3.73;2.83;;;21.60;99.90;;;;;;5032546;28;20891;-76
2022/07/04 09:16:02;;;;;;;3.87;2.30;;;21.70;99.90;;;;;;5032291;28;20488;-77
2022/07/04 09:18:31;;;;;;;5.83;2.47;;;21.80;99.90;;;;;;5032069;28;20457;-73
2022/07/04 09:21:00;;;;;;;3.37;2.40;;;21.90;99.90;;;;;;5032408;28;20468;-75
2022/07/04 09:23:30;;;;;;;3.30;2.20;;;22.10;99.90;;;;;;5032685;28;20484;-73
2022/07/04 09:26:09;;;;;;;4.77;2.63;;;22.20;99.90;;;;;;5032912;28;20484;-73
2022/07/04 09:28:36;;;;;;;7.23;3.00;;;22.20;99.90;;;;;;5032585;28;20849;-74
2022/07/04 09:31:13;;;;;;;4.13;2.50;;;22.30;99.90;;;;;;5034225;28;20955;-73
2022/07/04 09:33:49;;;;;;;3.93;2.10;;;22.40;99.90;;;;;;5035768;28;21036;-73
2022/07/04 09:36:18;;;;;;;3.60;2.27;;;22.70;99.90;;;;;;5035524;28;20464;-73
2022/07/04 09:38:46;;;;;;;3.10;2.47;;;22.90;99.90;;;;;;5034679;28;20464;-73
2022/07/04 09:41:34;;;;;;;2.57;2.37;;;22.90;99.90;;;;;;5033907;28;20893;-73
2022/07/04 09:44:02;;;;;;;2.57;2.37;;;23.10;99.90;;;;;;5035375;28;20483;-73
2022/07/04 09:46:29;;;;;;;2.60;2.40;;;23.40;99.90;;;;;;5037279;28;20460;-73
2022/07/04 09:48:56;;;;;;;4.33;2.60;;;23.50;99.90;;;;;;5036050;28;20472;-73
2022/07/04 09:51:38;;;;;;;2.80;2.60;;;23.60;99.90;;;;;;5034795;28;20479;-73
2022/07/04 09:54:21;;;;;;;3.60;2.83;;;23.70;99.90;;;;;;5033397;28;20499;-74
2022/07/04 09:56:50;;;;;;;3.77;2.50;;;23.80;99.90;;;;;;5034604;28;20590;-73
2022/07/04 09:59:17;;;;;;;2.67;2.47;;;24.00;99.90;;;;;;5034721;28;20460;-74
2022/07/04 10:01:44;;;;;;;4.53;2.70;;;24.10;99.90;;;;;;5034935;28;20456;-74
2022/07/04 10:04:12;;;;;;;3.27;2.97;;;24.20;99.90;;;;;;5033698;28;20877;-74
2022/07/04 10:06:40;;;;;;;5.07;2.43;;;24.20;99.90;;;;;;5033983;28;20472;-74
2022/07/04 10:09:11;;;;;;;4.23;2.50;;;24.30;99.90;;;;;;5034879;28;20987;-74
2022/07/04 10:11:41;;;;;;;2.60;2.40;;;24.40;99.90;;;;;;5035486;28;20459;-74
2022/07/04 10:14:09;;;;;;;2.50;2.30;;;24.50;99.90;;;;;;5036942;28;20488;-74
2022/07/04 10:16:36;;;;;;;3.40;2.50;;;24.60;99.90;;;;;;5037108;28;20843;-74
2022/07/04 10:19:03;;;;;;;2.27;2.13;;;24.80;99.90;;;;;;5034938;28;20460;-73
2022/07/04 10:21:31;;;;;;;3.53;2.03;;;25.00;99.90;;;;;;5033538;28;20889;-73
2022/07/04 10:23:58;;;;;;;3.10;2.37;;;25.10;99.90;;;;;;5032417;28;20473;-73
2022/07/04 10:26:25;;;;;;;3.00;2.47;;;25.20;99.90;;;;;;5034007;28;20891;-72
2022/07/04 10:28:53;;;;;;;2.53;2.30;;;25.40;99.90;;;;;;5032853;28;20465;-73
2022/07/04 10:31:24;;;;;;;2.70;2.50;;;25.40;99.90;;;;;;5032321;28;20472;-73
2022/07/04 10:33:52;;;;;;;5.30;2.90;;;25.50;99.90;;;;;;5033276;28;20499;-72
2022/07/04 10:36:20;;;;;;;2.50;1.90;;;25.50;99.90;;;;;;5032922;28;20453;-73
2022/07/04 10:38:51;;;;;;;4.23;2.40;;;25.50;99.90;;;;;;5032975;28;20469;-73
2022/07/04 10:41:21;;;;;;;4.40;2.40;;;25.60;99.90;;;;;;5030979;28;20468;-73
2022/07/04 10:43:59;;;;;;;2.93;2.10;;;25.60;99.90;;;;;;5033086;28;20464;-73
2022/07/04 10:46:37;;;;;;;2.93;2.17;;;25.60;99.90;;;;;;5032447;28;20468;-73
2022/07/04 10:49:06;;;;;;;3.70;2.50;;;25.70;99.90;;;;;;5032808;28;20461;-72
2022/07/04 10:51:42;;;;;;;5.10;2.40;;;25.80;99.90;;;;;;5032802;28;20467;-73
2022/07/04 10:54:14;;;;;;;3.80;2.47;;;25.90;99.90;;;;;;5031593;28;20496;-73
2022/07/04 10:56:43;;;;;;;3.43;2.20;;;26.00;99.90;;;;;;5032529;28;20970;-73
2022/07/04 10:59:14;;;;;;;2.63;2.37;;;26.20;99.90;;;;;;5030548;28;20464;-72
2022/07/04 11:01:50;;;;;;;2.00;1.83;;;26.40;99.90;;;;;;5030285;28;20460;-73
2022/07/04 11:04:47;;;;;;;3.17;2.43;;;26.50;99.90;;;;;;5030030;28;20478;-72
2022/07/04 11:07:14;;;;;;;2.70;2.10;;;26.80;99.90;;;;;;5030099;28;20491;-72
2022/07/04 11:09:42;;;;;;;3.10;2.37;;;26.90;99.90;;;;;;5029363;28;21039;-72
2022/07/04 11:12:09;;;;;;;2.53;2.03;;;27.00;99.90;;;;;;5030419;28;20967;-72
2022/07/04 11:14:43;;;;;;;4.80;2.40;;;26.90;99.90;;;;;;5029979;28;20492;-72
2022/07/04 11:17:11;;;;;;;2.60;2.40;;;26.80;99.90;;;;;;5029604;28;20460;-72
2022/07/04 11:19:38;;;;;;;2.30;2.00;;;26.70;99.90;;;;;;5029506;28;20466;-72
2022/07/04 11:22:06;;;;;;;3.27;2.20;;;26.50;99.90;;;;;;5029518;28;20457;-73
2022/07/04 11:24:34;;;;;;;3.20;2.37;;;26.30;99.90;;;;;;5030476;28;20531;-73
2022/07/04 11:27:01;;;;;;;2.30;2.10;;;26.30;99.90;;;;;;5029524;28;20487;-72
2022/07/04 11:29:29;;;;;;;2.20;2.00;;;26.50;99.90;;;;;;5028627;28;20461;-72
2022/07/04 11:31:57;;;;;;;2.50;2.30;;;26.60;99.90;;;;;;5028246;28;20461;-72
2022/07/04 11:34:24;;;;;;;2.47;2.27;;;26.70;99.90;;;;;;5029929;28;20554;-73
2022/07/04 11:36:52;;;;;;;2.53;2.30;;;26.80;99.90;;;;;;5042456;28;20494;-72
2022/07/04 11:39:20;;;;;;;3.90;2.53;;;26.80;99.90;;;;;;5043887;28;20492;-73
2022/07/04 11:45:03;;;;;;;3.20;2.13;;;26.70;99.90;;;;;;5028889;28;20511;-72
2022/07/04 11:47:36;;;;;;;3.77;2.10;;;26.50;99.60;;;;;;5030137;28;20463;-73
2022/07/04 11:50:05;;;;;;;2.67;2.47;;;26.40;99.90;;;;;;5031409;28;20495;-73
2022/07/04 11:52:40;;;;;;;2.67;2.47;;;26.40;99.90;;;;;;5032875;28;20460;-72
2022/07/04 11:55:09;;;;;;;2.43;2.20;;;26.60;99.90;;;;;;5035167;28;20856;-73
2022/07/04 11:57:37;;;;;;;2.60;2.40;;;26.60;99.90;;;;;;5035690;28;20471;-73
2022/07/04 12:00:08;;;;;;;3.80;2.53;;;26.60;99.90;;;;;;5034583;28;20467;-72
2022/07/04 12:05:15;;;;;;;2.70;2.40;;;26.40;99.90;;;;;;5107353;27;20542;-69
2022/07/04 12:07:44;;;;;;;3.43;2.30;;;26.40;99.90;;;;;;5104992;28;20550;-68
2022/07/04 12:10:13;;;;;;;3.80;2.20;;;26.60;99.90;;;;;;5105894;28;20454;-69
2022/07/04 12:12:54;;;;;;;2.63;2.20;;;26.90;99.90;;;;;;5106293;28;20461;-67
2022/07/04 12:15:22;;;;;;;5.03;2.57;;;27.20;99.90;;;;;;5105745;28;20480;-68
2022/07/04 12:17:51;;;;;;;3.50;2.53;;;27.50;99.90;;;;;;5106234;28;20461;-66
2022/07/04 12:20:20;;;;;;;3.57;2.80;;;27.60;99.90;;;;;;5105983;28;20510;-68
2022/07/04 12:22:52;;;;;;;2.80;2.60;;;27.70;99.90;;;;;;5106047;28;20459;-66
2022/07/04 12:25:25;;;;;;;3.30;2.50;;;27.70;99.90;;;;;;5106180;28;20473;-65
2022/07/04 12:27:56;;;;;;;3.70;2.20;;;27.80;99.90;;;;;;5105872;28;20467;-67
2022/07/04 12:30:23;;;;;;;2.50;2.20;;;27.70;99.90;;;;;;5104941;28;20466;-69
2022/07/04 12:32:52;;;;;;;3.10;2.20;;;27.90;99.90;;;;;;5106075;28;20518;-69
2022/07/04 12:35:43;;;;;;;3.20;2.33;;;28.10;99.10;;;;;;5106706;28;20481;-69
2022/07/04 12:38:11;;;;;;;9.23;4.57;;;28.20;98.00;;;;;;5106612;28;20458;-68
2022/07/04 12:40:50;;;;;;;2.87;2.57;;;28.10;99.90;;;;;;5106674;28;20454;-69
2022/07/04 12:43:17;;;;;;;2.77;2.50;;;28.10;99.90;;;;;;5106045;28;20483;-66
2022/07/04 12:45:45;;;;;;;4.83;2.53;;;28.30;98.60;;;;;;5106501;28;20486;-69
2022/07/04 12:48:20;;;;;;;2.50;2.30;;;28.30;98.20;;;;;;5106439;28;20465;-70
2022/07/04 12:50:48;;;;;;;3.27;2.50;;;28.30;99.40;;;;;;5106134;28;20449;-68
2022/07/04 12:53:15;;;;;;;2.40;2.20;;;28.30;99.80;;;;;;5106663;28;20462;-68
2022/07/04 12:55:43;;;;;;;2.83;2.50;;;28.30;99.90;;;;;;5106503;28;20499;-69
2022/07/04 12:58:10;;;;;;;3.70;2.50;;;28.40;98.60;;;;;;5105949;28;20454;-68
2022/07/04 13:00:37;;;;;;;2.73;2.43;;;28.50;99.90;;;;;;5106386;28;20458;-67
2022/07/04 13:03:04;;;;;;;3.00;2.30;;;28.70;97.80;;;;;;5103258;28;20964;-69
2022/07/04 13:05:31;;;;;;;3.50;2.43;;;28.70;98.60;;;;;;5106223;28;21024;-68
2022/07/04 13:07:59;;;;;;;2.60;2.40;;;28.70;99.50;;;;;;5106099;28;20834;-69
2022/07/04 13:10:26;;;;;;;3.50;2.60;;;28.70;98.20;;;;;;5105552;28;20478;-69
2022/07/04 13:12:53;;;;;;;4.03;2.27;;;28.60;99.50;;;;;;5106591;28;20460;-69
2022/07/04 13:15:20;;;;;;;3.40;2.03;;;28.50;97.60;;;;;;5099643;28;20532;-68
2022/07/04 13:17:47;;;;;;;3.03;2.50;;;28.30;98.40;;;;;;5092501;28;20455;-65
2022/07/04 13:20:14;;;;;;;2.30;2.10;;;28.00;97.70;;;;;;5091820;28;20462;-65